sensor_id;sensor_type;location;lat;lon;timestamp;temperature;humidity
33988;DHT22;37428;53.580;-1.666;2023-04-03T00:00:00;3.60;73.10
33988;DHT22;37428;53.580;-1.666;2023-04-03T00:03:02;3.50;73.00
33988;DHT22;37428;53.580;-1.666;2023-04-03T00:06:04;3.50;73.60
33988;DHT22;37428;53.580;-1.666;2023-04-03T00:09:07;3.50;73.70
33988;DHT22;37428;53.580;-1.666;2023-04-03T00:12:10;3.50;73.40
33988;DHT22;37428;53.580;-1.666;2023-04-03T00:15:12;3.40;73.80
33988;DHT22;37428;53.580;-1.666;2023-04-03T00:18:15;3.40;73.80
33988;DHT22;37428;53.580;-1.666;2023-04-03T00:21:17;3.40;74.00
33988;DHT22;37428;53.580;-1.666;2023-04-03T00:24:19;3.40;74.40
33988;DHT22;37428;53.580;-1.666;2023-04-03T00:27:22;3.30;74.30
33988;DHT22;37428;53.580;-1.666;2023-04-03T00:30:25;3.30;74.30
33988;DHT22;37428;53.580;-1.666;2023-04-03T00:33:27;3.30;74.00
33988;DHT22;37428;53.580;-1.666;2023-04-03T00:36:29;3.20;74.00
33988;DHT22;37428;53.580;-1.666;2023-04-03T00:39:32;3.20;74.10
33988;DHT22;37428;53.580;-1.666;2023-04-03T00:42:36;3.20;74.10
33988;DHT22;37428;53.580;-1.666;2023-04-03T00:45:39;3.10;73.90
33988;DHT22;37428;53.580;-1.666;2023-04-03T00:48:44;3.10;74.30
33988;DHT22;37428;53.580;-1.666;2023-04-03T00:51:46;3.00;74.30
33988;DHT22;37428;53.580;-1.666;2023-04-03T00:54:50;3.00;74.40
33988;DHT22;37428;53.580;-1.666;2023-04-03T00:57:56;3.00;74.30
33988;DHT22;37428;53.580;-1.666;2023-04-03T01:00:58;3.10;74.50
33988;DHT22;37428;53.580;-1.666;2023-04-03T01:04:01;3.00;74.60
33988;DHT22;37428;53.580;-1.666;2023-04-03T01:07:06;3.00;74.20
33988;DHT22;37428;53.580;-1.666;2023-04-03T01:10:12;3.00;74.70
33988;DHT22;37428;53.580;-1.666;2023-04-03T01:13:24;3.00;74.20
33988;DHT22;37428;53.580;-1.666;2023-04-03T01:16:26;2.90;74.50
33988;DHT22;37428;53.580;-1.666;2023-04-03T01:19:31;2.90;74.60
33988;DHT22;37428;53.580;-1.666;2023-04-03T01:22:35;2.90;74.50
33988;DHT22;37428;53.580;-1.666;2023-04-03T01:25:43;2.90;75.00
33988;DHT22;37428;53.580;-1.666;2023-04-03T01:28:47;2.90;75.20
33988;DHT22;37428;53.580;-1.666;2023-04-03T01:31:52;2.90;74.70
33988;DHT22;37428;53.580;-1.666;2023-04-03T01:34:54;2.80;74.80
33988;DHT22;37428;53.580;-1.666;2023-04-03T01:37:56;2.70;75.10
33988;DHT22;37428;53.580;-1.666;2023-04-03T01:40:58;2.70;75.40
33988;DHT22;37428;53.580;-1.666;2023-04-03T01:44:01;2.70;75.20
33988;DHT22;37428;53.580;-1.666;2023-04-03T01:47:07;2.80;75.40
33988;DHT22;37428;53.580;-1.666;2023-04-03T01:50:09;2.80;75.30
33988;DHT22;37428;53.580;-1.666;2023-04-03T01:53:12;2.70;74.70
33988;DHT22;37428;53.580;-1.666;2023-04-03T01:56:14;2.70;75.20
33988;DHT22;37428;53.580;-1.666;2023-04-03T01:59:16;2.60;75.20
33988;DHT22;37428;53.580;-1.666;2023-04-03T02:02:21;2.60;75.30
33988;DHT22;37428;53.580;-1.666;2023-04-03T02:05:23;2.60;75.50
33988;DHT22;37428;53.580;-1.666;2023-04-03T02:08:25;2.60;75.50
33988;DHT22;37428;53.580;-1.666;2023-04-03T02:11:27;2.70;75.40
33988;DHT22;37428;53.580;-1.666;2023-04-03T02:14:29;2.60;75.40
33988;DHT22;37428;53.580;-1.666;2023-04-03T02:17:33;2.60;75.50
33988;DHT22;37428;53.580;-1.666;2023-04-03T02:20:36;2.60;75.60
33988;DHT22;37428;53.580;-1.666;2023-04-03T02:23:38;2.60;75.60
33988;DHT22;37428;53.580;-1.666;2023-04-03T02:26:40;2.60;75.70
33988;DHT22;37428;53.580;-1.666;2023-04-03T02:29:42;2.60;75.70
33988;DHT22;37428;53.580;-1.666;2023-04-03T02:32:46;2.50;75.70
33988;DHT22;37428;53.580;-1.666;2023-04-03T02:35:52;2.50;76.30
33988;DHT22;37428;53.580;-1.666;2023-04-03T02:38:55;2.40;75.70
33988;DHT22;37428;53.580;-1.666;2023-04-03T02:41:57;2.40;75.50
33988;DHT22;37428;53.580;-1.666;2023-04-03T02:44:59;2.30;76.20
33988;DHT22;37428;53.580;-1.666;2023-04-03T02:48:04;2.30;76.70
33988;DHT22;37428;53.580;-1.666;2023-04-03T02:51:06;2.20;76.60
33988;DHT22;37428;53.580;-1.666;2023-04-03T02:54:08;2.20;76.80
33988;DHT22;37428;53.580;-1.666;2023-04-03T02:57:10;2.20;77.00
33988;DHT22;37428;53.580;-1.666;2023-04-03T03:00:13;2.20;77.10
33988;DHT22;37428;53.580;-1.666;2023-04-03T03:03:16;2.20;76.90
33988;DHT22;37428;53.580;-1.666;2023-04-03T03:06:18;2.20;76.90
33988;DHT22;37428;53.580;-1.666;2023-04-03T03:09:21;2.20;76.80
33988;DHT22;37428;53.580;-1.666;2023-04-03T03:12:23;2.30;76.90
33988;DHT22;37428;53.580;-1.666;2023-04-03T03:15:25;2.30;76.80
33988;DHT22;37428;53.580;-1.666;2023-04-03T03:18:29;2.30;76.30
33988;DHT22;37428;53.580;-1.666;2023-04-03T03:21:31;2.30;76.60
33988;DHT22;37428;53.580;-1.666;2023-04-03T03:24:33;2.30;76.50
33988;DHT22;37428;53.580;-1.666;2023-04-03T03:27:35;2.30;76.60
33988;DHT22;37428;53.580;-1.666;2023-04-03T03:30:37;2.30;76.30
33988;DHT22;37428;53.580;-1.666;2023-04-03T03:33:41;2.30;76.60
33988;DHT22;37428;53.580;-1.666;2023-04-03T03:36:43;2.30;76.80
33988;DHT22;37428;53.580;-1.666;2023-04-03T03:39:45;2.40;76.70
33988;DHT22;37428;53.580;-1.666;2023-04-03T03:42:47;2.40;76.60
33988;DHT22;37428;53.580;-1.666;2023-04-03T03:45:50;2.40;76.50
33988;DHT22;37428;53.580;-1.666;2023-04-03T03:48:54;2.30;76.40
33988;DHT22;37428;53.580;-1.666;2023-04-03T03:51:56;2.40;76.40
33988;DHT22;37428;53.580;-1.666;2023-04-03T03:54:58;2.30;76.40
33988;DHT22;37428;53.580;-1.666;2023-04-03T03:58:00;2.40;76.50
33988;DHT22;37428;53.580;-1.666;2023-04-03T04:01:05;2.30;76.30
33988;DHT22;37428;53.580;-1.666;2023-04-03T04:04:08;2.30;76.40
33988;DHT22;37428;53.580;-1.666;2023-04-03T04:07:10;2.20;76.50
33988;DHT22;37428;53.580;-1.666;2023-04-03T04:10:12;2.20;76.60
33988;DHT22;37428;53.580;-1.666;2023-04-03T04:13:14;2.20;77.00
33988;DHT22;37428;53.580;-1.666;2023-04-03T04:16:17;2.10;77.10
33988;DHT22;37428;53.580;-1.666;2023-04-03T04:19:20;2.10;77.30
33988;DHT22;37428;53.580;-1.666;2023-04-03T04:22:22;2.10;77.30
33988;DHT22;37428;53.580;-1.666;2023-04-03T04:25:24;2.10;77.30
33988;DHT22;37428;53.580;-1.666;2023-04-03T04:28:26;2.00;77.60
33988;DHT22;37428;53.580;-1.666;2023-04-03T04:31:28;2.10;77.80
33988;DHT22;37428;53.580;-1.666;2023-04-03T04:34:32;2.00;77.60
33988;DHT22;37428;53.580;-1.666;2023-04-03T04:37:34;2.00;77.90
33988;DHT22;37428;53.580;-1.666;2023-04-03T04:40:36;2.00;77.70
33988;DHT22;37428;53.580;-1.666;2023-04-03T04:43:38;1.90;77.90
33988;DHT22;37428;53.580;-1.666;2023-04-03T04:46:40;1.90;77.90
33988;DHT22;37428;53.580;-1.666;2023-04-03T04:49:44;1.80;78.30
33988;DHT22;37428;53.580;-1.666;2023-04-03T04:52:48;1.90;78.60
33988;DHT22;37428;53.580;-1.666;2023-04-03T04:55:50;1.70;78.40
33988;DHT22;37428;53.580;-1.666;2023-04-03T04:58:52;1.70;78.70
33988;DHT22;37428;53.580;-1.666;2023-04-03T05:01:55;1.70;79.10
33988;DHT22;37428;53.580;-1.666;2023-04-03T05:04:58;1.70;79.00
33988;DHT22;37428;53.580;-1.666;2023-04-03T05:08:00;1.70;79.10
33988;DHT22;37428;53.580;-1.666;2023-04-03T05:11:03;1.70;79.20
33988;DHT22;37428;53.580;-1.666;2023-04-03T05:14:05;1.60;79.20
33988;DHT22;37428;53.580;-1.666;2023-04-03T05:17:07;1.70;79.10
33988;DHT22;37428;53.580;-1.666;2023-04-03T05:20:11;1.70;79.20
33988;DHT22;37428;53.580;-1.666;2023-04-03T05:23:13;1.70;79.30
33988;DHT22;37428;53.580;-1.666;2023-04-03T05:26:15;1.70;79.60
33988;DHT22;37428;53.580;-1.666;2023-04-03T05:29:17;1.60;78.80
33988;DHT22;37428;53.580;-1.666;2023-04-03T05:32:20;1.60;78.40
33988;DHT22;37428;53.580;-1.666;2023-04-03T05:35:23;1.50;78.70
33988;DHT22;37428;53.580;-1.666;2023-04-03T05:38:25;1.50;79.20
33988;DHT22;37428;53.580;-1.666;2023-04-03T05:41:29;1.40;79.50
33988;DHT22;37428;53.580;-1.666;2023-04-03T05:44:31;1.40;79.80
33988;DHT22;37428;53.580;-1.666;2023-04-03T05:47:33;1.40;79.90
33988;DHT22;37428;53.580;-1.666;2023-04-03T05:50:37;1.40;79.70
33988;DHT22;37428;53.580;-1.666;2023-04-03T05:53:43;1.30;79.50
33988;DHT22;37428;53.580;-1.666;2023-04-03T05:56:45;1.30;79.60
33988;DHT22;37428;53.580;-1.666;2023-04-03T05:59:48;1.30;79.90
33988;DHT22;37428;53.580;-1.666;2023-04-03T06:02:51;1.40;80.20
33988;DHT22;37428;53.580;-1.666;2023-04-03T06:05:54;1.40;80.30
33988;DHT22;37428;53.580;-1.666;2023-04-03T06:08:56;1.40;80.20
33988;DHT22;37428;53.580;-1.666;2023-04-03T06:11:59;1.50;80.20
33988;DHT22;37428;53.580;-1.666;2023-04-03T06:15:01;1.70;80.00
33988;DHT22;37428;53.580;-1.666;2023-04-03T06:18:04;1.80;79.80
33988;DHT22;37428;53.580;-1.666;2023-04-03T06:21:07;1.90;79.30
33988;DHT22;37428;53.580;-1.666;2023-04-03T06:24:10;2.00;78.60
33988;DHT22;37428;53.580;-1.666;2023-04-03T06:27:14;2.10;78.60
33988;DHT22;37428;53.580;-1.666;2023-04-03T06:30:17;2.10;78.50
33988;DHT22;37428;53.580;-1.666;2023-04-03T06:33:19;2.30;79.00
33988;DHT22;37428;53.580;-1.666;2023-04-03T06:36:23;2.30;78.60
33988;DHT22;37428;53.580;-1.666;2023-04-03T06:39:25;2.40;78.80
33988;DHT22;37428;53.580;-1.666;2023-04-03T06:42:27;2.40;78.50
33988;DHT22;37428;53.580;-1.666;2023-04-03T06:45:30;2.50;78.80
33988;DHT22;37428;53.580;-1.666;2023-04-03T06:48:32;2.50;78.50
33988;DHT22;37428;53.580;-1.666;2023-04-03T06:51:36;2.50;78.60
33988;DHT22;37428;53.580;-1.666;2023-04-03T06:54:38;2.60;78.90
33988;DHT22;37428;53.580;-1.666;2023-04-03T06:57:40;2.70;78.30
33988;DHT22;37428;53.580;-1.666;2023-04-03T07:00:42;2.80;78.70
33988;DHT22;37428;53.580;-1.666;2023-04-03T07:03:45;2.90;78.40
33988;DHT22;37428;53.580;-1.666;2023-04-03T07:06:49;3.00;77.90
33988;DHT22;37428;53.580;-1.666;2023-04-03T07:09:53;3.00;77.70
33988;DHT22;37428;53.580;-1.666;2023-04-03T07:12:55;3.00;77.10
33988;DHT22;37428;53.580;-1.666;2023-04-03T07:15:58;2.90;77.00
33988;DHT22;37428;53.580;-1.666;2023-04-03T07:19:00;3.00;77.70
33988;DHT22;37428;53.580;-1.666;2023-04-03T07:22:04;3.10;77.10
33988;DHT22;37428;53.580;-1.666;2023-04-03T07:25:07;3.00;77.00
33988;DHT22;37428;53.580;-1.666;2023-04-03T07:28:09;3.00;77.50
33988;DHT22;37428;53.580;-1.666;2023-04-03T07:31:12;3.00;77.00
33988;DHT22;37428;53.580;-1.666;2023-04-03T07:34:15;2.90;77.10
33988;DHT22;37428;53.580;-1.666;2023-04-03T07:37:18;2.90;77.90
33988;DHT22;37428;53.580;-1.666;2023-04-03T07:40:21;3.10;79.10
33988;DHT22;37428;53.580;-1.666;2023-04-03T07:43:23;3.30;78.70
33988;DHT22;37428;53.580;-1.666;2023-04-03T07:46:26;3.40;77.50
33988;DHT22;37428;53.580;-1.666;2023-04-03T07:49:28;3.50;77.20
33988;DHT22;37428;53.580;-1.666;2023-04-03T07:52:32;3.40;77.30
33988;DHT22;37428;53.580;-1.666;2023-04-03T07:55:34;3.70;77.80
33988;DHT22;37428;53.580;-1.666;2023-04-03T07:58:43;3.90;77.10
33988;DHT22;37428;53.580;-1.666;2023-04-03T08:01:46;4.00;77.20
33988;DHT22;37428;53.580;-1.666;2023-04-03T08:04:48;4.20;76.50
33988;DHT22;37428;53.580;-1.666;2023-04-03T08:07:51;4.20;75.50
33988;DHT22;37428;53.580;-1.666;2023-04-03T08:10:54;4.40;75.10
33988;DHT22;37428;53.580;-1.666;2023-04-03T08:13:56;4.80;75.10
33988;DHT22;37428;53.580;-1.666;2023-04-03T08:16:58;4.90;73.20
33988;DHT22;37428;53.580;-1.666;2023-04-03T08:20:00;5.10;72.60
33988;DHT22;37428;53.580;-1.666;2023-04-03T08:23:03;5.20;72.20
33988;DHT22;37428;53.580;-1.666;2023-04-03T08:26:07;5.40;71.60
33988;DHT22;37428;53.580;-1.666;2023-04-03T08:29:09;5.60;71.40
33988;DHT22;37428;53.580;-1.666;2023-04-03T08:32:15;5.90;70.50
33988;DHT22;37428;53.580;-1.666;2023-04-03T08:35:17;6.10;68.30
33988;DHT22;37428;53.580;-1.666;2023-04-03T08:38:22;6.20;68.30
33988;DHT22;37428;53.580;-1.666;2023-04-03T08:41:29;6.50;67.40
33988;DHT22;37428;53.580;-1.666;2023-04-03T08:44:39;6.70;67.40
33988;DHT22;37428;53.580;-1.666;2023-04-03T08:47:49;6.90;66.10
33988;DHT22;37428;53.580;-1.666;2023-04-03T08:50:57;6.90;65.00
33988;DHT22;37428;53.580;-1.666;2023-04-03T08:54:04;6.70;65.80
33988;DHT22;37428;53.580;-1.666;2023-04-03T08:57:10;6.80;65.00
33988;DHT22;37428;53.580;-1.666;2023-04-03T09:00:17;6.90;65.00
33988;DHT22;37428;53.580;-1.666;2023-04-03T09:03:21;7.10;65.00
33988;DHT22;37428;53.580;-1.666;2023-04-03T09:06:26;7.20;64.00
33988;DHT22;37428;53.580;-1.666;2023-04-03T09:09:35;7.50;64.00
33988;DHT22;37428;53.580;-1.666;2023-04-03T09:12:44;7.70;62.70
33988;DHT22;37428;53.580;-1.666;2023-04-03T09:15:47;8.00;62.30
33988;DHT22;37428;53.580;-1.666;2023-04-03T09:18:53;8.00;61.10
33988;DHT22;37428;53.580;-1.666;2023-04-03T09:21:57;7.60;61.40
33988;DHT22;37428;53.580;-1.666;2023-04-03T09:25:05;7.40;61.40
33988;DHT22;37428;53.580;-1.666;2023-04-03T09:28:09;7.30;61.50
33988;DHT22;37428;53.580;-1.666;2023-04-03T09:31:20;7.20;62.00
33988;DHT22;37428;53.580;-1.666;2023-04-03T09:34:24;7.40;62.00
33988;DHT22;37428;53.580;-1.666;2023-04-03T09:37:36;7.50;61.30
33988;DHT22;37428;53.580;-1.666;2023-04-03T09:40:41;7.90;61.20
33988;DHT22;37428;53.580;-1.666;2023-04-03T09:43:52;7.90;60.00
33988;DHT22;37428;53.580;-1.666;2023-04-03T09:46:54;7.60;60.30
33988;DHT22;37428;53.580;-1.666;2023-04-03T09:50:19;7.30;60.80
33988;DHT22;37428;53.580;-1.666;2023-04-03T09:53:28;7.30;61.30
33988;DHT22;37428;53.580;-1.666;2023-04-03T09:56:32;7.30;61.10
33988;DHT22;37428;53.580;-1.666;2023-04-03T09:59:35;7.70;61.00
33988;DHT22;37428;53.580;-1.666;2023-04-03T10:02:39;7.90;60.50
33988;DHT22;37428;53.580;-1.666;2023-04-03T10:05:42;8.10;58.00
33988;DHT22;37428;53.580;-1.666;2023-04-03T10:08:44;8.00;59.30
33988;DHT22;37428;53.580;-1.666;2023-04-03T10:12:03;8.10;59.70
33988;DHT22;37428;53.580;-1.666;2023-04-03T10:15:12;8.30;58.70
33988;DHT22;37428;53.580;-1.666;2023-04-03T10:18:27;8.40;57.60
33988;DHT22;37428;53.580;-1.666;2023-04-03T10:21:37;8.80;58.70
33988;DHT22;37428;53.580;-1.666;2023-04-03T10:24:50;9.30;57.40
33988;DHT22;37428;53.580;-1.666;2023-04-03T10:27:59;9.70;55.20
33988;DHT22;37428;53.580;-1.666;2023-04-03T10:31:06;9.80;54.40
33988;DHT22;37428;53.580;-1.666;2023-04-03T10:34:18;9.50;53.60
33988;DHT22;37428;53.580;-1.666;2023-04-03T10:37:26;9.60;54.20
33988;DHT22;37428;53.580;-1.666;2023-04-03T10:40:33;9.80;53.20
33988;DHT22;37428;53.580;-1.666;2023-04-03T10:43:42;9.90;52.90
33988;DHT22;37428;53.580;-1.666;2023-04-03T10:46:49;9.90;53.30
33988;DHT22;37428;53.580;-1.666;2023-04-03T10:49:58;9.90;52.30
33988;DHT22;37428;53.580;-1.666;2023-04-03T10:53:05;10.10;53.60
33988;DHT22;37428;53.580;-1.666;2023-04-03T10:56:14;10.40;52.10
33988;DHT22;37428;53.580;-1.666;2023-04-03T10:59:25;10.50;52.20
33988;DHT22;37428;53.580;-1.666;2023-04-03T11:02:31;10.50;50.10
33988;DHT22;37428;53.580;-1.666;2023-04-03T11:05:39;10.80;52.50
33988;DHT22;37428;53.580;-1.666;2023-04-03T11:08:45;10.70;50.20
33988;DHT22;37428;53.580;-1.666;2023-04-03T11:11:55;10.50;51.50
33988;DHT22;37428;53.580;-1.666;2023-04-03T11:15:02;10.80;52.00
33988;DHT22;37428;53.580;-1.666;2023-04-03T11:18:08;10.90;50.80
33988;DHT22;37428;53.580;-1.666;2023-04-03T11:21:16;11.20;51.60
33988;DHT22;37428;53.580;-1.666;2023-04-03T11:24:23;11.10;49.70
33988;DHT22;37428;53.580;-1.666;2023-04-03T11:27:27;10.90;49.90
33988;DHT22;37428;53.580;-1.666;2023-04-03T11:30:42;11.10;49.90
33988;DHT22;37428;53.580;-1.666;2023-04-03T11:33:55;11.00;50.10
33988;DHT22;37428;53.580;-1.666;2023-04-03T11:37:01;11.30;50.50
33988;DHT22;37428;53.580;-1.666;2023-04-03T11:40:20;11.70;49.70
33988;DHT22;37428;53.580;-1.666;2023-04-03T11:43:25;11.80;48.20
33988;DHT22;37428;53.580;-1.666;2023-04-03T11:46:52;12.10;47.40
33988;DHT22;37428;53.580;-1.666;2023-04-03T11:49:59;12.20;47.30
33988;DHT22;37428;53.580;-1.666;2023-04-03T11:53:12;12.10;48.60
33988;DHT22;37428;53.580;-1.666;2023-04-03T11:56:30;12.20;48.70
33988;DHT22;37428;53.580;-1.666;2023-04-03T11:59:37;12.40;47.80
33988;DHT22;37428;53.580;-1.666;2023-04-03T12:02:40;12.70;47.50
33988;DHT22;37428;53.580;-1.666;2023-04-03T12:05:43;12.60;46.80
33988;DHT22;37428;53.580;-1.666;2023-04-03T12:08:47;12.80;45.70
33988;DHT22;37428;53.580;-1.666;2023-04-03T12:11:49;12.70;46.40
33988;DHT22;37428;53.580;-1.666;2023-04-03T12:14:53;12.50;44.90
33988;DHT22;37428;53.580;-1.666;2023-04-03T12:17:56;12.60;45.50
33988;DHT22;37428;53.580;-1.666;2023-04-03T12:20:59;12.40;46.70
33988;DHT22;37428;53.580;-1.666;2023-04-03T12:24:04;12.60;46.40
33988;DHT22;37428;53.580;-1.666;2023-04-03T12:27:21;12.30;45.80
33988;DHT22;37428;53.580;-1.666;2023-04-03T12:30:26;12.50;46.80
33988;DHT22;37428;53.580;-1.666;2023-04-03T12:33:38;12.70;45.90
33988;DHT22;37428;53.580;-1.666;2023-04-03T12:36:51;12.50;46.10
33988;DHT22;37428;53.580;-1.666;2023-04-03T12:40:05;12.70;45.10
33988;DHT22;37428;53.580;-1.666;2023-04-03T12:43:24;12.30;46.30
33988;DHT22;37428;53.580;-1.666;2023-04-03T12:46:36;12.40;47.60
33988;DHT22;37428;53.580;-1.666;2023-04-03T12:49:43;12.50;46.10
33988;DHT22;37428;53.580;-1.666;2023-04-03T12:52:50;12.70;44.60
33988;DHT22;37428;53.580;-1.666;2023-04-03T12:55:54;13.00;45.70
33988;DHT22;37428;53.580;-1.666;2023-04-03T12:59:13;13.40;45.70
33988;DHT22;37428;53.580;-1.666;2023-04-03T13:02:27;13.30;43.90
33988;DHT22;37428;53.580;-1.666;2023-04-03T13:05:32;13.20;45.20
33988;DHT22;37428;53.580;-1.666;2023-04-03T13:08:34;13.10;44.00
33988;DHT22;37428;53.580;-1.666;2023-04-03T13:11:40;13.20;44.60
33988;DHT22;37428;53.580;-1.666;2023-04-03T13:14:52;13.20;44.00
33988;DHT22;37428;53.580;-1.666;2023-04-03T13:17:55;13.20;44.60
33988;DHT22;37428;53.580;-1.666;2023-04-03T13:21:03;13.30;44.70
33988;DHT22;37428;53.580;-1.666;2023-04-03T13:24:06;13.80;44.40
33988;DHT22;37428;53.580;-1.666;2023-04-03T13:27:11;14.30;43.80
33988;DHT22;37428;53.580;-1.666;2023-04-03T13:30:27;14.10;41.10
33988;DHT22;37428;53.580;-1.666;2023-04-03T13:33:31;14.30;41.80
33988;DHT22;37428;53.580;-1.666;2023-04-03T13:36:37;14.20;41.30
33988;DHT22;37428;53.580;-1.666;2023-04-03T13:39:39;14.00;42.00
33988;DHT22;37428;53.580;-1.666;2023-04-03T13:42:41;14.20;42.30
33988;DHT22;37428;53.580;-1.666;2023-04-03T13:45:58;14.10;42.10
33988;DHT22;37428;53.580;-1.666;2023-04-03T13:49:18;13.70;40.50
33988;DHT22;37428;53.580;-1.666;2023-04-03T13:52:28;14.00;41.60
33988;DHT22;37428;53.580;-1.666;2023-04-03T13:55:32;14.20;42.20
33988;DHT22;37428;53.580;-1.666;2023-04-03T13:58:36;14.40;42.20
33988;DHT22;37428;53.580;-1.666;2023-04-03T14:01:46;14.50;42.60
33988;DHT22;37428;53.580;-1.666;2023-04-03T14:04:54;14.70;41.50
33988;DHT22;37428;53.580;-1.666;2023-04-03T14:08:00;14.50;40.30
33988;DHT22;37428;53.580;-1.666;2023-04-03T14:11:02;14.70;41.10
33988;DHT22;37428;53.580;-1.666;2023-04-03T14:14:12;14.70;39.60
33988;DHT22;37428;53.580;-1.666;2023-04-03T14:17:16;14.30;41.60
33988;DHT22;37428;53.580;-1.666;2023-04-03T14:20:21;13.90;41.80
33988;DHT22;37428;53.580;-1.666;2023-04-03T14:23:24;14.10;42.70
33988;DHT22;37428;53.580;-1.666;2023-04-03T14:26:28;14.20;42.00
33988;DHT22;37428;53.580;-1.666;2023-04-03T14:29:31;14.10;42.00
33988;DHT22;37428;53.580;-1.666;2023-04-03T14:32:33;14.40;43.80
33988;DHT22;37428;53.580;-1.666;2023-04-03T14:35:35;14.40;41.40
33988;DHT22;37428;53.580;-1.666;2023-04-03T14:38:40;14.40;41.10
33988;DHT22;37428;53.580;-1.666;2023-04-03T14:41:43;14.50;41.70
33988;DHT22;37428;53.580;-1.666;2023-04-03T14:44:45;14.60;41.80
33988;DHT22;37428;53.580;-1.666;2023-04-03T14:47:49;14.60;42.60
33988;DHT22;37428;53.580;-1.666;2023-04-03T14:50:53;14.60;41.60
33988;DHT22;37428;53.580;-1.666;2023-04-03T14:53:56;14.40;41.20
33988;DHT22;37428;53.580;-1.666;2023-04-03T14:57:00;14.30;42.20
33988;DHT22;37428;53.580;-1.666;2023-04-03T15:00:04;14.60;42.80
33988;DHT22;37428;53.580;-1.666;2023-04-03T15:03:08;14.70;41.90
33988;DHT22;37428;53.580;-1.666;2023-04-03T15:06:12;14.60;41.60
33988;DHT22;37428;53.580;-1.666;2023-04-03T15:09:21;14.50;41.30
33988;DHT22;37428;53.580;-1.666;2023-04-03T15:12:24;14.40;41.30
33988;DHT22;37428;53.580;-1.666;2023-04-03T15:15:28;14.20;42.00
33988;DHT22;37428;53.580;-1.666;2023-04-03T15:18:35;14.50;41.50
33988;DHT22;37428;53.580;-1.666;2023-04-03T15:21:37;14.60;40.40
33988;DHT22;37428;53.580;-1.666;2023-04-03T15:24:41;15.00;40.60
33988;DHT22;37428;53.580;-1.666;2023-04-03T15:27:43;14.70;40.60
33988;DHT22;37428;53.580;-1.666;2023-04-03T15:30:45;14.30;41.60
33988;DHT22;37428;53.580;-1.666;2023-04-03T15:33:48;13.80;42.50
33988;DHT22;37428;53.580;-1.666;2023-04-03T15:36:50;13.50;43.60
33988;DHT22;37428;53.580;-1.666;2023-04-03T15:39:54;13.20;43.80
33988;DHT22;37428;53.580;-1.666;2023-04-03T15:42:56;13.00;44.40
33988;DHT22;37428;53.580;-1.666;2023-04-03T15:45:59;13.20;45.10
33988;DHT22;37428;53.580;-1.666;2023-04-03T15:49:01;13.00;44.70
33988;DHT22;37428;53.580;-1.666;2023-04-03T15:52:03;12.90;44.80
33988;DHT22;37428;53.580;-1.666;2023-04-03T15:55:08;12.80;44.30
33988;DHT22;37428;53.580;-1.666;2023-04-03T15:58:10;12.80;45.10
33988;DHT22;37428;53.580;-1.666;2023-04-03T16:01:12;13.10;45.70
33988;DHT22;37428;53.580;-1.666;2023-04-03T16:04:15;13.40;44.80
33988;DHT22;37428;53.580;-1.666;2023-04-03T16:07:17;13.40;44.10
33988;DHT22;37428;53.580;-1.666;2023-04-03T16:10:21;13.30;43.20
33988;DHT22;37428;53.580;-1.666;2023-04-03T16:13:23;13.30;43.30
33988;DHT22;37428;53.580;-1.666;2023-04-03T16:16:25;13.20;43.60
33988;DHT22;37428;53.580;-1.666;2023-04-03T16:19:28;13.30;43.60
33988;DHT22;37428;53.580;-1.666;2023-04-03T16:22:31;13.40;43.30
33988;DHT22;37428;53.580;-1.666;2023-04-03T16:25:35;13.20;43.10
33988;DHT22;37428;53.580;-1.666;2023-04-03T16:28:37;13.20;43.40
33988;DHT22;37428;53.580;-1.666;2023-04-03T16:31:39;12.90;43.40
33988;DHT22;37428;53.580;-1.666;2023-04-03T16:34:42;13.00;44.60
33988;DHT22;37428;53.580;-1.666;2023-04-03T16:37:44;13.00;44.00
33988;DHT22;37428;53.580;-1.666;2023-04-03T16:40:48;13.00;44.50
33988;DHT22;37428;53.580;-1.666;2023-04-03T16:43:50;12.90;44.50
33988;DHT22;37428;53.580;-1.666;2023-04-03T16:46:52;12.90;45.10
33988;DHT22;37428;53.580;-1.666;2023-04-03T16:49:54;12.90;44.20
33988;DHT22;37428;53.580;-1.666;2023-04-03T16:52:56;12.90;45.50
33988;DHT22;37428;53.580;-1.666;2023-04-03T16:56:00;12.70;45.00
33988;DHT22;37428;53.580;-1.666;2023-04-03T16:59:02;12.30;45.70
33988;DHT22;37428;53.580;-1.666;2023-04-03T17:02:04;12.30;46.40
33988;DHT22;37428;53.580;-1.666;2023-04-03T17:05:07;12.20;45.50
33988;DHT22;37428;53.580;-1.666;2023-04-03T17:08:12;12.20;45.30
33988;DHT22;37428;53.580;-1.666;2023-04-03T17:11:17;12.10;45.30
33988;DHT22;37428;53.580;-1.666;2023-04-03T17:14:19;12.10;46.10
33988;DHT22;37428;53.580;-1.666;2023-04-03T17:17:23;12.00;46.10
33988;DHT22;37428;53.580;-1.666;2023-04-03T17:20:26;11.70;46.50
33988;DHT22;37428;53.580;-1.666;2023-04-03T17:23:28;11.50;47.80
33988;DHT22;37428;53.580;-1.666;2023-04-03T17:26:32;11.30;48.20
33988;DHT22;37428;53.580;-1.666;2023-04-03T17:29:34;11.30;48.60
33988;DHT22;37428;53.580;-1.666;2023-04-03T17:32:36;11.10;49.20
33988;DHT22;37428;53.580;-1.666;2023-04-03T17:35:39;11.00;49.80
33988;DHT22;37428;53.580;-1.666;2023-04-03T17:38:41;11.00;50.40
33988;DHT22;37428;53.580;-1.666;2023-04-03T17:41:44;11.00;50.70
33988;DHT22;37428;53.580;-1.666;2023-04-03T17:44:48;11.00;50.90
33988;DHT22;37428;53.580;-1.666;2023-04-03T17:47:51;11.00;50.70
33988;DHT22;37428;53.580;-1.666;2023-04-03T17:50:53;10.90;49.70
33988;DHT22;37428;53.580;-1.666;2023-04-03T17:53:55;10.80;49.50
33988;DHT22;37428;53.580;-1.666;2023-04-03T17:56:58;10.90;50.20
33988;DHT22;37428;53.580;-1.666;2023-04-03T18:00:04;10.80;50.00
33988;DHT22;37428;53.580;-1.666;2023-04-03T18:03:07;10.70;50.60
33988;DHT22;37428;53.580;-1.666;2023-04-03T18:06:11;10.70;50.50
33988;DHT22;37428;53.580;-1.666;2023-04-03T18:09:16;10.70;50.90
33988;DHT22;37428;53.580;-1.666;2023-04-03T18:12:21;10.60;51.40
33988;DHT22;37428;53.580;-1.666;2023-04-03T18:15:23;10.50;51.80
33988;DHT22;37428;53.580;-1.666;2023-04-03T18:18:25;10.50;52.20
33988;DHT22;37428;53.580;-1.666;2023-04-03T18:21:28;10.40;52.50
33988;DHT22;37428;53.580;-1.666;2023-04-03T18:28:30;10.20;53.10
33988;DHT22;37428;53.580;-1.666;2023-04-03T18:31:33;10.10;53.80
33988;DHT22;37428;53.580;-1.666;2023-04-03T18:34:36;10.10;53.90
33988;DHT22;37428;53.580;-1.666;2023-04-03T18:37:38;10.00;54.50
33988;DHT22;37428;53.580;-1.666;2023-04-03T18:40:40;9.90;54.40
33988;DHT22;37428;53.580;-1.666;2023-04-03T18:43:45;9.80;54.80
33988;DHT22;37428;53.580;-1.666;2023-04-03T18:46:49;9.70;55.00
33988;DHT22;37428;53.580;-1.666;2023-04-03T18:49:52;9.70;55.50
33988;DHT22;37428;53.580;-1.666;2023-04-03T18:52:54;9.70;55.90
33988;DHT22;37428;53.580;-1.666;2023-04-03T18:55:56;9.60;55.70
33988;DHT22;37428;53.580;-1.666;2023-04-03T18:58:59;9.50;56.00
33988;DHT22;37428;53.580;-1.666;2023-04-03T19:02:02;9.40;56.50
33988;DHT22;37428;53.580;-1.666;2023-04-03T19:05:06;9.40;56.90
33988;DHT22;37428;53.580;-1.666;2023-04-03T19:08:08;9.50;57.50
33988;DHT22;37428;53.580;-1.666;2023-04-03T19:11:10;9.40;57.00
33988;DHT22;37428;53.580;-1.666;2023-04-03T19:14:14;9.40;57.00
33988;DHT22;37428;53.580;-1.666;2023-04-03T19:17:16;9.30;57.00
33988;DHT22;37428;53.580;-1.666;2023-04-03T19:20:18;9.30;57.50